Kamenomostskiy, Russia
Current Conditions -  °F | °C
As of 3:30 AM on Tuesday 25 Nov 2014 (Local Time) from URSS Reporting Station
Few Clouds Few Clouds  
Wind Chill: 40°   Ceiling: Unl
Heat Index: 43°   Visibility: 6mi
Dew Point: 36°   Wind: 4mph
Humidity: 76%   Direction: 80°E
Pressure: 30.15"   Gusts: 13mph
Location:  44.18°N, 40.14°E
Report Text: URSS 250030Z 08002G06MPS 9999 FEW050 06/02 Q1021 NOSIG RMKR02/04005MPS QFE764 06000070 02000070
Loading
Personal Weather Stations






























Interactive Weather Map New forecast layout! Learn more

10-Day Weather Forecast

Advertisements
Track Severe Weather on mobile